createdAt,value
2023-03-27T00:01:39.353Z,24.03
2023-03-27T00:04:09.179Z,24.63
2023-03-27T00:06:37.681Z,20.73
2023-03-27T00:09:08.375Z,21.27
2023-03-27T00:11:37.033Z,24.67
2023-03-27T00:14:05.712Z,22.10
2023-03-27T00:16:34.114Z,23.40
2023-03-27T00:19:04.032Z,24.33
2023-03-27T00:21:32.474Z,22.17
2023-03-27T00:24:00.625Z,24.27
2023-03-27T00:26:30.619Z,23.47
2023-03-27T00:28:58.998Z,24.55
2023-03-27T00:31:27.474Z,23.40
2023-03-27T00:33:55.973Z,26.30
2023-03-27T00:36:26.077Z,22.10
2023-03-27T00:38:54.384Z,25.23
2023-03-27T00:41:23.438Z,24.52
2023-03-27T00:43:56.461Z,27.57
2023-03-27T00:46:39.642Z,25.20
2023-03-27T00:49:11.390Z,23.47
2023-03-27T00:51:43.600Z,27.73
2023-03-27T00:54:13.592Z,27.50
2023-03-27T00:56:42.114Z,27.60
2023-03-27T00:59:15.908Z,28.33
2023-03-27T01:01:46.187Z,25.00
2023-03-27T01:04:14.575Z,27.75
2023-03-27T01:06:44.779Z,29.37
2023-03-27T01:09:20.440Z,28.07
2023-03-27T01:12:00.794Z,24.80
2023-03-27T01:14:38.198Z,24.95
2023-03-27T01:17:21.148Z,29.70
2023-03-27T01:20:20.319Z,27.52
2023-03-27T01:23:09.517Z,26.47
2023-03-27T01:26:04.440Z,26.67
2023-03-27T01:28:41.428Z,26.17
2023-03-27T01:31:24.222Z,26.47
2023-03-27T01:34:11.274Z,28.70
2023-03-27T01:37:08.912Z,35.20
2023-03-27T01:39:47.205Z,27.70
2023-03-27T01:42:21.438Z,28.87
2023-03-27T01:44:55.453Z,28.87
2023-03-27T01:47:35.302Z,27.93
2023-03-27T01:50:10.226Z,32.43
2023-03-27T01:52:42.328Z,26.47
2023-03-27T01:55:19.304Z,27.97
2023-03-27T01:57:52.204Z,27.37
2023-03-27T02:00:23.796Z,26.70
2023-03-27T02:03:11.291Z,28.07
2023-03-27T02:05:43.796Z,25.77
2023-03-27T02:08:18.397Z,26.23
2023-03-27T02:10:52.381Z,26.87
2023-03-27T02:13:27.410Z,28.27
2023-03-27T02:15:59.453Z,25.67
2023-03-27T02:18:31.796Z,26.13
2023-03-27T02:21:02.375Z,26.10
2023-03-27T02:23:32.923Z,25.43
2023-03-27T02:26:02.783Z,26.17
2023-03-27T02:29:04.209Z,29.73
2023-03-27T02:31:44.727Z,28.83
2023-03-27T02:34:50.405Z,26.07
2023-03-27T02:37:32.820Z,29.80
2023-03-27T02:40:40.032Z,29.03
2023-03-27T02:43:34.245Z,27.80
2023-03-27T02:46:10.285Z,28.90
2023-03-27T02:48:42.255Z,33.00
2023-03-27T02:51:15.707Z,29.33
2023-03-27T02:53:49.809Z,35.07
2023-03-27T02:56:21.211Z,28.83
2023-03-27T02:58:57.308Z,30.47
2023-03-27T03:01:53.055Z,32.13
2023-03-27T03:04:35.794Z,34.77
2023-03-27T03:07:23.086Z,29.53
2023-03-27T03:09:51.644Z,30.03
2023-03-27T03:12:20.053Z,28.97
2023-03-27T03:14:49.762Z,32.00
2023-03-27T03:17:18.342Z,26.20
2023-03-27T03:19:46.813Z,28.80
2023-03-27T03:22:15.090Z,31.40
2023-03-27T03:24:43.812Z,32.80
2023-03-27T03:27:15.809Z,34.53
2023-03-27T03:29:57.838Z,27.27
2023-03-27T03:32:30.514Z,30.60
2023-03-27T03:35:01.767Z,31.13
2023-03-27T03:37:38.449Z,29.37
2023-03-27T03:40:11.975Z,34.33
2023-03-27T03:42:48.043Z,34.73
2023-03-27T03:45:19.809Z,37.63
2023-03-27T03:47:48.683Z,33.00
2023-03-27T03:50:17.765Z,35.67
2023-03-27T03:52:47.151Z,36.30
2023-03-27T03:55:16.291Z,33.43
2023-03-27T03:57:47.581Z,31.03
2023-03-27T04:00:25.204Z,32.57
2023-03-27T04:02:56.928Z,27.47
2023-03-27T04:05:26.088Z,29.83
2023-03-27T04:07:59.636Z,32.73
2023-03-27T04:10:28.774Z,31.90
2023-03-27T04:12:58.544Z,23.03
2023-03-27T04:15:38.805Z,28.83
2023-03-27T04:18:30.431Z,27.07
2023-03-27T04:20:59.674Z,32.27
2023-03-27T04:23:30.341Z,25.67
2023-03-27T04:26:01.083Z,23.10
2023-03-27T04:28:44.688Z,28.87
2023-03-27T04:31:34.635Z,28.20
2023-03-27T04:34:22.224Z,23.77
2023-03-27T04:37:07.790Z,25.00
2023-03-27T04:39:42.874Z,25.47
2023-03-27T04:42:11.599Z,27.13
2023-03-27T04:44:40.362Z,24.40
2023-03-27T04:47:10.459Z,26.00
2023-03-27T04:49:43.787Z,28.87
2023-03-27T04:52:20.727Z,32.10
2023-03-27T04:54:49.549Z,29.53
2023-03-27T04:57:19.325Z,29.77
2023-03-27T04:59:50.684Z,29.93
2023-03-27T05:02:58.228Z,27.37
2023-03-27T05:05:35.924Z,28.47
2023-03-27T05:08:07.076Z,28.07
2023-03-27T05:10:35.346Z,25.50
2023-03-27T05:13:03.574Z,24.63
2023-03-27T05:15:33.638Z,21.77
2023-03-27T05:18:07.511Z,26.15
2023-03-27T05:20:37.294Z,24.63
2023-03-27T05:23:10.891Z,29.80
2023-03-27T05:25:40.059Z,25.70
2023-03-27T05:28:13.675Z,24.17
2023-03-27T05:30:43.305Z,26.70
2023-03-27T05:33:18.385Z,25.13
2023-03-27T05:35:47.269Z,22.50
2023-03-27T05:38:16.961Z,26.57
2023-03-27T05:40:57.098Z,36.40
2023-03-27T05:43:26.433Z,20.00
2023-03-27T05:45:54.586Z,22.35
2023-03-27T05:48:24.284Z,21.90
2023-03-27T05:50:52.432Z,21.90
2023-03-27T05:53:27.937Z,17.75
2023-03-27T05:56:23.593Z,19.40
2023-03-27T05:58:58.260Z,17.92
2023-03-27T06:01:28.033Z,16.88
2023-03-27T06:04:00.252Z,17.15
2023-03-27T06:06:34.368Z,16.60
2023-03-27T06:09:02.989Z,16.60
2023-03-27T06:11:32.796Z,18.58
2023-03-27T06:14:01.355Z,13.68
2023-03-27T06:17:03.528Z,15.70
2023-03-27T06:19:51.612Z,14.27
2023-03-27T06:22:20.085Z,13.15
2023-03-27T06:24:50.051Z,14.30
2023-03-27T06:27:20.777Z,18.10
2023-03-27T06:29:49.149Z,14.38
2023-03-27T06:32:17.823Z,15.23
2023-03-27T06:34:53.176Z,12.77
2023-03-27T06:37:41.518Z,15.05
2023-03-27T06:40:20.194Z,14.40
2023-03-27T06:42:53.453Z,16.55
2023-03-27T06:45:31.496Z,14.18
2023-03-27T06:48:35.118Z,14.93
2023-03-27T06:51:08.022Z,17.58
2023-03-27T06:53:38.063Z,20.20
2023-03-27T06:56:08.031Z,22.10
2023-03-27T06:58:56.587Z,25.40
2023-03-27T07:01:28.423Z,21.42
2023-03-27T07:04:15.561Z,19.45
2023-03-27T07:06:56.280Z,21.27
2023-03-27T07:09:24.645Z,17.33
2023-03-27T07:12:06.228Z,20.80
2023-03-27T07:14:36.573Z,18.30
2023-03-27T07:17:06.973Z,19.77
2023-03-27T07:19:51.633Z,16.85
2023-03-27T07:22:24.501Z,19.08
2023-03-27T07:24:52.856Z,19.95
2023-03-27T07:27:22.696Z,22.15
2023-03-27T07:29:51.492Z,29.73
2023-03-27T07:32:36.096Z,26.45
2023-03-27T07:35:06.956Z,25.90
2023-03-27T07:37:59.233Z,24.23
2023-03-27T07:40:44.553Z,18.50
2023-03-27T07:43:27.940Z,24.75
2023-03-27T07:45:57.806Z,23.20
2023-03-27T07:48:27.942Z,26.50
2023-03-27T07:51:10.923Z,24.77
2023-03-27T07:53:43.785Z,16.52
2023-03-27T07:56:18.479Z,18.35
2023-03-27T07:58:49.041Z,13.90
2023-03-27T08:01:22.108Z,15.73
2023-03-27T08:03:52.311Z,19.27
2023-03-27T08:06:22.370Z,16.90
2023-03-27T08:08:52.419Z,13.40
2023-03-27T08:11:30.036Z,13.00
2023-03-27T08:13:59.842Z,10.85
2023-03-27T08:16:30.182Z,18.30
2023-03-27T08:19:03.166Z,15.15
2023-03-27T08:21:33.319Z,13.18
2023-03-27T08:24:05.399Z,13.20
2023-03-27T08:26:36.832Z,13.27
2023-03-27T08:29:09.502Z,13.38
2023-03-27T08:31:39.547Z,11.70
2023-03-27T08:34:08.731Z,15.93
2023-03-27T08:36:46.792Z,12.63
2023-03-27T08:39:17.745Z,12.63
2023-03-27T08:41:56.280Z,11.10
2023-03-27T08:44:36.266Z,13.82
2023-03-27T08:47:15.943Z,13.45
2023-03-27T08:50:03.543Z,14.10
2023-03-27T08:52:37.445Z,10.95
2023-03-27T08:55:19.214Z,10.00
2023-03-27T08:57:57.368Z,8.00
2023-03-27T09:00:32.451Z,8.63
2023-03-27T09:03:26.050Z,10.70
2023-03-27T09:05:59.663Z,8.68
2023-03-27T09:08:43.812Z,8.07
2023-03-27T09:11:25.072Z,6.97
2023-03-27T09:13:59.681Z,9.73
2023-03-27T09:16:32.615Z,7.07
2023-03-27T09:19:11.412Z,6.97
2023-03-27T09:21:44.646Z,7.88
2023-03-27T09:24:27.325Z,12.02
2023-03-27T09:27:20.297Z,5.72
2023-03-27T09:30:06.255Z,6.20
2023-03-27T09:33:00.170Z,9.77
2023-03-27T09:35:28.703Z,14.27
2023-03-27T09:38:01.184Z,11.75
2023-03-27T09:40:44.415Z,5.50
2023-03-27T09:43:20.542Z,8.57
2023-03-27T09:45:54.003Z,5.93
2023-03-27T09:48:29.775Z,6.28
2023-03-27T09:50:58.793Z,8.70
2023-03-27T09:53:33.399Z,5.13
2023-03-27T09:56:16.474Z,12.80
2023-03-27T09:58:57.238Z,8.88
2023-03-27T10:01:34.522Z,7.50
2023-03-27T10:04:24.648Z,7.28
2023-03-27T10:07:05.545Z,7.63
2023-03-27T10:10:09.592Z,10.82
2023-03-27T10:13:03.486Z,7.43
2023-03-27T10:15:47.895Z,7.55
2023-03-27T10:18:32.187Z,7.47
2023-03-27T10:21:26.245Z,8.73
2023-03-27T10:24:02.266Z,7.20
2023-03-27T10:26:54.430Z,8.60
2023-03-27T10:29:27.475Z,9.57
2023-03-27T10:31:58.795Z,10.10
2023-03-27T10:34:37.789Z,4.90
2023-03-27T10:37:50.494Z,7.72
2023-03-27T10:40:34.152Z,7.10
2023-03-27T10:43:13.303Z,5.65
2023-03-27T10:45:50.424Z,5.97
2023-03-27T10:48:39.288Z,7.35
2023-03-27T10:51:23.703Z,4.05
2023-03-27T10:54:04.225Z,6.47
2023-03-27T10:56:49.971Z,5.40
2023-03-27T10:59:38.631Z,6.60
2023-03-27T11:02:19.688Z,6.43
2023-03-27T11:04:56.822Z,5.63
2023-03-27T11:07:33.926Z,7.43
2023-03-27T11:10:13.203Z,5.07
2023-03-27T11:12:44.829Z,5.72
2023-03-27T11:15:16.677Z,4.60
2023-03-27T11:17:51.177Z,4.38
2023-03-27T11:20:30.043Z,4.20
2023-03-27T11:23:20.168Z,6.57
2023-03-27T11:26:12.714Z,3.58
2023-03-27T11:28:47.172Z,8.50
2023-03-27T11:31:23.387Z,5.38
2023-03-27T11:33:57.206Z,8.57
2023-03-27T11:36:37.863Z,9.00
2023-03-27T11:39:27.295Z,10.27
2023-03-27T11:41:59.031Z,6.60
2023-03-27T11:44:30.441Z,4.28
2023-03-27T11:47:32.782Z,5.93
2023-03-27T11:50:19.633Z,7.47
2023-03-27T11:53:00.971Z,4.18
2023-03-27T11:56:09.753Z,3.83
2023-03-27T11:58:53.866Z,7.53
2023-03-27T12:01:28.948Z,5.72
2023-03-27T12:04:18.044Z,5.00
2023-03-27T12:07:18.764Z,4.43
2023-03-27T12:10:05.003Z,9.80
2023-03-27T12:13:22.697Z,10.80
2023-03-27T12:16:17.676Z,5.43
2023-03-27T12:19:17.284Z,5.05
2023-03-27T12:25:14.342Z,4.47
2023-03-27T12:28:22.712Z,9.93
2023-03-27T12:31:27.293Z,6.15
2023-03-27T12:34:02.367Z,5.57
2023-03-27T12:36:37.529Z,6.68
2023-03-27T12:39:26.102Z,4.03
2023-03-27T12:41:59.129Z,4.38
2023-03-27T12:44:33.562Z,4.45
2023-03-27T12:47:09.662Z,5.47
2023-03-27T12:49:48.428Z,2.60
2023-03-27T12:52:27.501Z,4.30
2023-03-27T12:55:32.960Z,4.53
2023-03-27T12:58:05.654Z,3.40
2023-03-27T13:01:01.718Z,5.85
2023-03-27T13:04:17.642Z,3.53
2023-03-27T13:06:56.018Z,3.63
2023-03-27T13:10:03.912Z,3.05
2023-03-27T13:12:58.753Z,4.72
2023-03-27T13:15:57.774Z,3.40
2023-03-27T13:18:52.281Z,7.90
2023-03-27T13:21:30.168Z,4.47
2023-03-27T13:24:19.642Z,7.05
2023-03-27T13:27:03.798Z,3.67
2023-03-27T13:29:37.322Z,4.85
2023-03-27T13:32:37.311Z,3.67
2023-03-27T13:35:34.286Z,5.10
2023-03-27T13:38:03.800Z,4.93
2023-03-27T13:40:54.231Z,3.72
2023-03-27T13:43:33.787Z,5.30
2023-03-27T13:46:29.277Z,4.07
2023-03-27T13:49:28.097Z,6.28
2023-03-27T13:52:32.618Z,3.30
2023-03-27T13:55:51.261Z,4.25
2023-03-27T13:58:57.098Z,5.78
2023-03-27T14:01:40.447Z,4.68
2023-03-27T14:04:29.682Z,3.42
2023-03-27T14:07:42.482Z,4.18
2023-03-27T14:10:24.068Z,2.72
2023-03-27T14:13:19.234Z,4.65
2023-03-27T14:16:17.201Z,7.05
2023-03-27T14:19:12.296Z,3.80
2023-03-27T14:21:53.592Z,3.05
2023-03-27T14:24:32.797Z,5.30
2023-03-27T14:27:13.682Z,5.97
2023-03-27T14:29:42.422Z,2.63
2023-03-27T14:32:17.452Z,4.35
2023-03-27T14:34:54.719Z,5.28
2023-03-27T14:37:44.956Z,6.75
2023-03-27T14:40:31.665Z,4.15
2023-03-27T14:43:06.277Z,7.03
2023-03-27T14:45:39.416Z,3.50
2023-03-27T14:48:10.099Z,3.83
2023-03-27T14:50:47.479Z,5.43
2023-03-27T14:53:22.040Z,2.03
2023-03-27T14:56:11.744Z,2.33
2023-03-27T14:59:01.933Z,2.53
2023-03-27T15:01:42.462Z,3.00
2023-03-27T15:04:12.133Z,2.27
2023-03-27T15:06:42.651Z,3.47
2023-03-27T15:09:19.255Z,6.03
2023-03-27T15:11:59.077Z,3.33
2023-03-27T15:14:32.577Z,3.23
2023-03-27T15:17:07.037Z,2.67
2023-03-27T15:19:45.661Z,1.70
2023-03-27T15:22:23.460Z,2.13
2023-03-27T15:24:58.055Z,2.60
2023-03-27T15:27:29.753Z,1.97
2023-03-27T15:30:02.926Z,2.57
2023-03-27T15:32:42.338Z,6.57
2023-03-27T15:35:18.147Z,3.57
2023-03-27T15:37:46.875Z,2.37
2023-03-27T15:40:36.884Z,1.90
2023-03-27T15:43:19.781Z,2.50
2023-03-27T15:46:01.845Z,2.77
2023-03-27T15:48:35.187Z,6.03
2023-03-27T15:51:06.275Z,1.93
2023-03-27T15:53:37.005Z,2.87
2023-03-27T15:56:08.856Z,5.03
2023-03-27T15:58:47.284Z,6.80
2023-03-27T16:01:20.051Z,3.87
2023-03-27T16:03:50.771Z,2.77
2023-03-27T16:06:30.914Z,3.07
2023-03-27T16:08:59.687Z,5.27
2023-03-27T16:11:39.622Z,6.50
2023-03-27T16:14:22.123Z,3.87
2023-03-27T16:16:54.982Z,3.23
2023-03-27T16:19:23.312Z,3.57
2023-03-27T16:21:57.885Z,4.77
2023-03-27T16:24:26.125Z,3.50
2023-03-27T16:26:55.696Z,5.27
2023-03-27T16:29:24.208Z,3.40
2023-03-27T16:31:52.427Z,3.17
2023-03-27T16:34:23.323Z,5.73
2023-03-27T16:36:52.436Z,3.50
2023-03-27T16:39:20.688Z,3.10
2023-03-27T16:41:49.252Z,3.90
2023-03-27T16:44:19.045Z,3.47
2023-03-27T16:46:47.598Z,6.83
2023-03-27T16:49:15.810Z,5.83
2023-03-27T16:51:44.129Z,3.63
2023-03-27T16:54:12.259Z,4.20
2023-03-27T16:56:40.793Z,4.60
2023-03-27T16:59:09.021Z,6.43
2023-03-27T17:01:38.730Z,5.43
2023-03-27T17:04:07.103Z,5.27
2023-03-27T17:06:36.323Z,5.53
2023-03-27T17:09:04.587Z,5.00
2023-03-27T17:11:33.009Z,3.43
2023-03-27T17:14:01.224Z,3.20
2023-03-27T17:16:29.493Z,3.43
2023-03-27T17:18:59.280Z,3.73
2023-03-27T17:21:28.505Z,4.30
2023-03-27T17:23:58.292Z,4.90
2023-03-27T17:26:28.220Z,4.17
2023-03-27T17:28:56.836Z,4.00
2023-03-27T17:31:25.498Z,5.57
2023-03-27T17:33:54.028Z,3.20
2023-03-27T17:36:39.752Z,4.17
2023-03-27T17:39:11.358Z,4.20
2023-03-27T17:41:39.712Z,3.20
2023-03-27T17:44:08.392Z,6.07
2023-03-27T17:46:36.849Z,4.90
2023-03-27T17:49:05.312Z,5.17
2023-03-27T17:51:35.472Z,3.97
2023-03-27T17:54:04.445Z,4.37
2023-03-27T17:56:32.798Z,5.23
2023-03-27T17:59:02.427Z,4.53
2023-03-27T18:01:30.583Z,3.93
2023-03-27T18:04:00.676Z,5.37
2023-03-27T18:06:29.044Z,6.13
2023-03-27T18:08:58.808Z,6.37
2023-03-27T18:11:27.016Z,4.33
2023-03-27T18:13:55.221Z,4.80
2023-03-27T18:16:23.629Z,7.17
2023-03-27T18:18:54.882Z,4.77
2023-03-27T18:21:23.311Z,5.40
2023-03-27T18:23:53.613Z,5.47
2023-03-27T18:26:23.733Z,5.23
2023-03-27T18:28:52.459Z,5.33
2023-03-27T18:31:20.905Z,4.40
2023-03-27T18:33:49.118Z,5.37
2023-03-27T18:36:17.386Z,3.07
2023-03-27T18:38:47.741Z,8.30
2023-03-27T18:41:17.954Z,5.43
2023-03-27T18:43:47.501Z,4.67
2023-03-27T18:46:17.680Z,4.73
2023-03-27T18:48:48.625Z,4.77
2023-03-27T18:51:18.596Z,4.50
2023-03-27T18:53:47.277Z,4.87
2023-03-27T18:56:16.816Z,4.90
2023-03-27T18:58:45.076Z,4.63
2023-03-27T19:01:14.859Z,5.83
2023-03-27T19:03:43.591Z,4.37
2023-03-27T19:06:13.690Z,6.47
2023-03-27T19:08:42.994Z,4.33
2023-03-27T19:11:11.677Z,4.67
2023-03-27T19:13:58.578Z,4.70
2023-03-27T19:16:46.988Z,3.73
2023-03-27T19:19:37.894Z,5.03
2023-03-27T19:22:22.343Z,5.13
2023-03-27T19:24:57.318Z,3.83
2023-03-27T19:27:27.576Z,5.20
2023-03-27T19:30:09.426Z,3.67
2023-03-27T19:32:39.185Z,7.30
2023-03-27T19:35:09.030Z,3.90
2023-03-27T19:37:37.718Z,3.30
2023-03-27T19:40:06.993Z,4.87
2023-03-27T19:42:36.349Z,5.90
2023-03-27T19:45:04.972Z,3.53
2023-03-27T19:47:33.299Z,2.87
2023-03-27T19:50:03.128Z,4.67
2023-03-27T19:52:57.285Z,3.40
2023-03-27T19:55:29.738Z,4.97
2023-03-27T19:57:57.928Z,5.37
2023-03-27T20:00:26.201Z,5.47
2023-03-27T20:02:54.482Z,4.07
2023-03-27T20:05:24.114Z,3.67
2023-03-27T20:07:52.300Z,4.90
2023-03-27T20:10:22.089Z,4.60
2023-03-27T20:12:50.441Z,4.97
2023-03-27T20:15:18.661Z,5.57
2023-03-27T20:17:46.968Z,6.10
2023-03-27T20:20:15.436Z,6.07
2023-03-27T20:22:56.913Z,5.33
2023-03-27T20:25:28.112Z,3.73
2023-03-27T20:27:56.403Z,6.17
2023-03-27T20:30:24.880Z,5.70
2023-03-27T20:32:54.140Z,4.40
2023-03-27T20:35:24.616Z,6.73
2023-03-27T20:37:57.980Z,5.57
2023-03-27T20:40:32.855Z,10.60
2023-03-27T20:43:06.048Z,4.27
2023-03-27T20:45:34.265Z,6.40
2023-03-27T20:48:04.303Z,4.73
2023-03-27T20:50:35.548Z,4.30
2023-03-27T20:53:05.458Z,4.47
2023-03-27T20:55:37.594Z,5.33
2023-03-27T20:58:13.991Z,4.37
2023-03-27T21:00:43.791Z,4.47
2023-03-27T21:03:12.391Z,4.17
2023-03-27T21:05:41.399Z,5.40
2023-03-27T21:08:11.198Z,6.07
2023-03-27T21:10:39.733Z,7.10
2023-03-27T21:13:08.568Z,4.47
2023-03-27T21:15:36.874Z,6.67
2023-03-27T21:18:05.385Z,7.43
2023-03-27T21:20:35.387Z,8.20
2023-03-27T21:23:03.793Z,4.63
2023-03-27T21:25:35.572Z,5.67
2023-03-27T21:28:07.108Z,5.50
2023-03-27T21:30:46.928Z,5.53
2023-03-27T21:33:18.124Z,6.57
2023-03-27T21:35:47.664Z,5.87
2023-03-27T21:38:16.991Z,4.50
2023-03-27T21:40:47.588Z,3.67
2023-03-27T21:43:16.262Z,4.43
2023-03-27T21:45:44.474Z,4.90
2023-03-27T21:48:12.906Z,4.57
2023-03-27T21:50:41.031Z,5.50
2023-03-27T21:53:09.340Z,5.60
2023-03-27T21:55:38.155Z,4.83
2023-03-27T21:58:07.750Z,5.23
2023-03-27T22:00:36.156Z,5.33
2023-03-27T22:03:04.466Z,3.70
2023-03-27T22:05:36.206Z,5.13
2023-03-27T22:08:04.612Z,7.33
2023-03-27T22:10:34.893Z,4.50
2023-03-27T22:13:03.449Z,7.27
2023-03-27T22:15:33.037Z,4.00
2023-03-27T22:18:01.461Z,5.00
2023-03-27T22:20:29.918Z,3.70
2023-03-27T22:22:58.208Z,5.93
2023-03-27T22:25:26.528Z,4.37
2023-03-27T22:27:54.824Z,6.40
2023-03-27T22:30:23.100Z,5.33
2023-03-27T22:32:52.956Z,4.93
2023-03-27T22:35:21.251Z,6.43
2023-03-27T22:37:49.525Z,5.40
2023-03-27T22:40:17.875Z,5.47
2023-03-27T22:42:46.144Z,7.37
2023-03-27T22:45:14.298Z,7.93
2023-03-27T22:47:42.653Z,11.57
2023-03-27T22:50:12.436Z,5.93
2023-03-27T22:52:40.652Z,8.63
2023-03-27T22:55:10.120Z,8.23
2023-03-27T22:57:38.698Z,6.80
2023-03-27T23:00:08.369Z,6.20
2023-03-27T23:02:37.139Z,7.33
2023-03-27T23:05:05.691Z,7.40
2023-03-27T23:07:36.022Z,10.27
2023-03-27T23:10:04.486Z,9.67
2023-03-27T23:12:32.715Z,8.13
2023-03-27T23:15:00.927Z,6.80
2023-03-27T23:17:29.134Z,5.37
2023-03-27T23:19:57.338Z,6.80
2023-03-27T23:22:25.822Z,8.13
2023-03-27T23:24:55.575Z,6.43
2023-03-27T23:27:23.735Z,8.70
2023-03-27T23:29:52.353Z,9.23
2023-03-27T23:32:20.873Z,8.43
2023-03-27T23:34:49.464Z,13.97
2023-03-27T23:37:17.917Z,7.50
2023-03-27T23:39:46.492Z,7.63
2023-03-27T23:42:15.972Z,9.10
2023-03-27T23:44:44.285Z,10.30
2023-03-27T23:47:12.473Z,8.50
2023-03-27T23:49:42.513Z,9.27
2023-03-27T23:52:10.872Z,9.30
2023-03-27T23:54:39.155Z,9.90
2023-03-27T23:57:07.455Z,7.07
2023-03-27T23:59:38.078Z,9.40
